Time;durP1;ratioP1;P1;durP2;ratioP2;P2;SDS_P1;SDS_P2;PMS_P1;PMS_P2;Temp;Humidity;BMP_temperature;BMP_pressure;BME280_temperature;BME280_humidity;BME280_pressure;Samples;Min_cycle;Max_cycle;Signal;HPM_P1;HPM_P2
2023/09/07 00:20:00;;;;;;;26.00;15.00;;;;;;;13.72;71.27;99524.98;437113;1248;97995;-41
2023/09/07 00:30:08;;;;;;;34.20;20.40;;;;;;;13.65;71.64;99523.73;436660;1261;455148;-42
2023/09/07 00:40:14;;;;;;;25.50;15.60;;;;;;;13.52;71.65;99530.14;437246;1248;97905;-41
2023/09/07 00:50:22;;;;;;;20.40;14.20;;;;;;;13.16;71.66;99536.98;437015;1247;110485;-41
2023/09/07 01:20:42;;;;;;;20.90;15.30;;;;;;;12.82;72.42;99526.94;437150;1251;107511;-41
2023/09/07 01:40:58;;;;;;;18.50;12.60;;;;;;;12.69;72.78;99535.84;435393;1250;111081;-41
2023/09/07 01:51:05;;;;;;;21.30;14.60;;;;;;;12.50;73.06;99531.42;435250;1256;108153;-42
2023/09/07 02:01:20;;;;;;;24.60;14.70;;;;;;;12.30;73.32;99529.54;435294;1250;99227;-42
2023/09/07 02:11:27;;;;;;;22.90;14.50;;;;;;;12.16;73.59;99525.46;435189;1250;108399;-42
2023/09/07 02:31:40;;;;;;;23.60;14.80;;;;;;;12.29;74.46;99512.73;435195;1254;111261;-42
2023/09/07 02:41:48;;;;;;;25.50;15.10;;;;;;;12.30;74.58;99516.60;435316;1256;107539;-43
2023/09/07 02:51:55;;;;;;;23.00;15.60;;;;;;;12.22;74.88;99512.38;435315;1251;99887;-42
2023/09/07 03:02:02;;;;;;;20.50;13.20;;;;;;;12.07;74.67;99516.41;435324;1254;108335;-42
2023/09/07 03:12:08;;;;;;;22.60;13.60;;;;;;;11.95;74.54;99510.06;435237;1264;99236;-42
2023/09/07 03:22:16;;;;;;;21.70;13.70;;;;;;;11.84;74.77;99501.06;435430;1251;110851;-43
2023/09/07 03:32:22;;;;;;;18.20;13.80;;;;;;;11.68;74.96;99506.83;435391;1264;106471;-42
2023/09/07 03:42:28;;;;;;;21.40;12.80;;;;;;;11.53;74.89;99511.27;435284;1264;99253;-42
2023/09/07 03:52:39;;;;;;;20.70;12.80;;;;;;;11.47;74.94;99523.48;435222;1260;107733;-42
2023/09/07 04:02:46;;;;;;;22.30;13.90;;;;;;;11.42;75.10;99519.03;435131;1254;98831;-42
2023/09/07 04:12:54;;;;;;;26.90;16.10;;;;;;;11.47;75.63;99525.22;435474;1254;111482;-43
2023/09/07 04:23:02;;;;;;;28.80;17.20;;;;;;;11.50;75.79;99535.64;435407;1254;109331;-43
2023/09/07 04:33:09;;;;;;;24.50;14.60;;;;;;;11.55;75.86;99533.93;435194;1257;99479;-43
2023/09/07 04:43:16;;;;;;;24.40;14.90;;;;;;;11.78;76.19;99539.52;435283;1251;109418;-42
2023/09/07 05:03:27;;;;;;;36.70;15.80;;;;;;;12.37;76.35;99547.58;435353;1250;112113;-40
2023/09/07 05:13:35;;;;;;;35.60;16.30;;;;;;;12.52;76.33;99555.55;435274;1264;107695;-41
2023/09/07 05:23:42;;;;;;;33.50;13.90;;;;;;;13.69;76.56;99567.38;435909;1254;97989;-42
2023/09/07 05:33:48;;;;;;;30.20;15.90;;;;;;;15.35;76.25;99560.58;435353;1253;108053;-43
2023/09/07 05:43:53;;;;;;;50.10;17.60;;;;;;;16.83;75.49;99563.94;435271;1254;99223;-42
2023/09/07 05:53:59;;;;;;;51.40;16.90;;;;;;;18.10;74.66;99572.11;435370;1254;113023;-42
2023/09/07 06:04:04;;;;;;;93.40;19.80;;;;;;;19.71;73.65;99573.11;435203;1249;107832;-43
2023/09/07 06:14:11;;;;;;;72.50;19.60;;;;;;;21.00;72.31;99574.11;435472;1253;99227;-43
2023/09/07 06:24:16;;;;;;;20.00;12.30;;;;;;;21.95;70.81;99579.70;435370;1251;108599;-42
2023/09/07 06:54:35;;;;;;;13.20;7.70;;;;;;;22.96;64.87;99610.48;435215;1250;107177;-42
2023/09/07 07:04:41;;;;;;;8.30;7.30;;;;;;;23.25;63.43;99617.58;435370;1251;99113;-41
2023/09/07 07:14:48;;;;;;;10.10;7.90;;;;;;;23.33;61.96;99616.52;435484;1251;108602;-41
2023/09/07 07:45:12;;;;;;;8.40;7.40;;;;;;;23.65;58.85;99616.55;435285;1251;107893;-41
2023/09/07 07:55:18;;;;;;;16.10;7.50;;;;;;;23.44;57.51;99618.63;435390;1251;97996;-42
2023/09/07 08:05:24;;;;;;;8.80;7.10;;;;;;;23.38;56.32;99630.42;435391;1254;107500;-41
2023/09/07 08:15:31;;;;;;;10.30;7.40;;;;;;;23.56;55.71;99626.92;435314;1249;98823;-41
2023/09/07 08:25:44;;;;;;;10.90;7.70;;;;;;;23.64;54.60;99624.92;435559;1254;111299;-41
2023/09/07 08:46:03;;;;;;;;;;;;;;;23.79;52.64;99627.46;435331;1254;99268;-42
2023/09/07 08:56:12;;;;;;;11.20;6.70;;;;;;;24.01;53.03;99623.45;435612;1250;107774;-40
2023/09/07 09:06:20;;;;;;;10.10;6.90;;;;;;;24.09;51.88;99623.77;435268;1254;99218;-42
2023/09/07 09:16:27;;;;;;;9.80;6.30;;;;;;;24.12;51.71;99627.55;435312;1254;111144;-41
2023/09/07 09:26:37;;;;;;;12.40;6.20;;;;;;;24.29;51.41;99624.39;435355;1250;109348;-42
2023/09/07 09:36:44;;;;;;;9.00;6.20;;;;;;;24.76;51.66;99628.12;435472;1250;98004;-41
2023/09/07 09:46:52;;;;;;;7.40;5.30;;;;;;;24.78;50.92;99622.94;435232;1254;108399;-41
2023/09/07 10:07:05;;;;;;;10.70;5.90;;;;;;;24.59;49.88;99616.09;435525;1251;111865;-41
2023/09/07 10:17:22;;;;;;;7.20;6.00;;;;;;;24.83;49.64;99617.17;435465;1250;107117;-42
2023/09/07 10:27:37;;;;;;;7.50;5.30;;;;;;;24.95;49.57;99619.75;435386;1250;99355;-40
2023/09/07 10:47:50;;;;;;;8.30;6.30;;;;;;;25.22;48.37;99612.63;435340;1249;99221;-41
2023/09/07 10:57:57;;;;;;;5.90;5.30;;;;;;;25.35;48.68;99602.36;435492;1253;112135;-42
2023/09/07 11:08:06;;;;;;;6.10;5.30;;;;;;;25.31;47.67;99597.61;435260;1250;109908;-41
2023/09/07 11:28:19;;;;;;;;;;;;;;;25.51;47.82;99577.80;435280;1254;107840;-42
2023/09/07 11:38:36;;;;;;;8.70;5.60;;;;;;;25.50;47.55;99578.30;435356;1254;97980;-43
2023/09/07 11:58:48;;;;;;;7.20;5.00;;;;;;;25.55;47.86;99566.13;435324;1254;108842;-42
2023/09/07 12:09:06;;;;;;;7.80;5.30;;;;;;;25.60;47.43;99572.94;435434;1251;99311;-43
2023/09/07 12:19:12;;;;;;;6.30;5.10;;;;;;;25.53;47.58;99575.73;435317;1250;107148;-44
2023/09/07 12:29:20;;;;;;;6.70;5.30;;;;;;;25.38;46.93;99570.27;435186;1250;388436;-41
2023/09/07 12:59:37;;;;;;;7.40;5.20;;;;;;;25.32;46.64;99534.27;435388;1253;97985;-42
2023/09/07 13:09:43;;;;;;;9.20;5.70;;;;;;;25.31;46.98;99527.17;435475;1250;109941;-42
2023/09/07 13:19:50;;;;;;;10.40;6.20;;;;;;;25.30;46.67;99518.05;435337;1254;99352;-41
2023/09/07 13:30:11;;;;;;;;;;;;;;;;;;;;;
2023/09/07 13:40:19;;;;;;;9.70;5.20;;;;;;;25.42;46.31;99510.74;435282;1254;107923;-44
2023/09/07 14:00:31;;;;;;;5.90;5.30;;;;;;;25.33;45.99;99499.95;435838;1254;107326;-42
2023/09/07 14:10:38;;;;;;;7.50;5.40;;;;;;;25.35;46.30;99494.87;435435;1250;98104;-42
2023/09/07 14:20:44;;;;;;;8.10;5.50;;;;;;;25.32;46.05;99488.83;435206;1250;111407;-42
2023/09/07 14:40:55;;;;;;;10.70;6.10;;;;;;;25.38;46.82;99485.77;435312;1249;99237;-42
2023/09/07 14:51:03;;;;;;;13.10;7.70;;;;;;;25.30;47.18;99483.98;435350;1250;109530;-41
2023/09/07 15:11:16;;;;;;;8.50;7.10;;;;;;;25.10;47.45;99483.74;435348;1254;112842;-41
2023/09/07 15:21:22;;;;;;;8.20;6.70;;;;;;;24.91;47.82;99468.07;435372;1250;109225;-42
2023/09/07 15:31:27;;;;;;;7.90;7.00;;;;;;;24.87;48.26;99465.66;435444;1250;98418;-42
2023/09/07 15:41:34;;;;;;;9.70;7.00;;;;;;;24.81;48.55;99468.82;435432;1254;108568;-43
2023/09/07 15:51:41;;;;;;;7.70;7.00;;;;;;;24.70;48.53;99466.88;435413;1250;99231;-42
2023/09/07 16:01:47;;;;;;;8.50;7.00;;;;;;;24.51;48.91;99461.79;435339;1250;111111;-42
2023/09/07 16:11:55;;;;;;;11.40;7.60;;;;;;;24.34;49.40;99462.67;435311;1250;107740;-42
2023/09/07 16:22:06;;;;;;;11.10;7.00;;;;;;;24.14;49.80;99472.61;435224;1250;98821;-42
2023/09/07 16:32:14;;;;;;;10.70;7.70;;;;;;;23.95;50.01;99467.33;435378;1253;106790;-42
2023/09/07 16:42:22;;;;;;;9.50;7.80;;;;;;;23.69;50.34;99464.58;435438;1253;99266;-42
2023/09/07 16:52:31;;;;;;;7.00;6.40;;;;;;;23.42;50.73;99463.73;435490;1253;112333;-43
2023/09/07 17:12:46;;;;;;;14.00;7.10;;;;;;;22.75;51.82;99462.45;435316;1253;99201;-42
2023/09/07 17:22:52;;;;;;;17.10;7.70;;;;;;;22.12;52.60;99471.07;435189;1250;108108;-42
2023/09/07 17:43:04;;;;;;;20.90;7.50;;;;;;;20.84;55.00;99474.98;435193;1256;111961;-41
2023/09/07 17:53:11;;;;;;;84.30;12.00;;;;;;;20.41;56.13;99480.18;435319;1256;107781;-43
2023/09/07 18:13:23;;;;;;;22.50;10.10;;;;;;;19.62;58.38;99483.65;435388;1250;108003;-42
2023/09/07 18:23:30;;;;;;;20.20;11.20;;;;;;;19.25;59.35;99489.38;435404;1250;99237;-42
2023/09/07 18:33:38;;;;;;;15.00;9.20;;;;;;;19.03;60.11;99494.90;435218;1256;111983;-42
2023/09/07 18:43:46;;;;;;;14.90;10.50;;;;;;;18.87;60.77;99496.61;435392;1250;107835;-41
2023/09/07 18:53:53;;;;;;;15.60;13.10;;;;;;;18.67;61.61;99497.16;435349;1250;97996;-42
2023/09/07 19:24:20;;;;;;;17.70;12.50;;;;;;;18.52;62.90;99503.29;436639;1254;111457;-41
2023/09/07 19:34:24;;;;;;;16.60;12.40;;;;;;;18.26;63.25;99502.45;436221;1250;107889;-42
2023/09/07 20:04:42;;;;;;;15.60;12.20;;;;;;;17.58;64.90;99485.59;435408;1250;99212;-41
2023/09/07 20:45:08;;;;;;;17.40;12.00;;;;;;;16.74;67.22;99470.49;435215;1264;111006;-41
2023/09/07 20:55:16;;;;;;;21.00;13.80;;;;;;;16.73;67.59;99475.08;435334;1253;97998;-40
2023/09/07 21:25:34;;;;;;;21.60;12.40;;;;;;;16.02;68.61;99486.04;435312;1250;99240;-41
2023/09/07 21:35:40;;;;;;;17.50;11.60;;;;;;;15.91;69.09;99481.52;435323;1256;108324;-41
2023/09/07 21:45:47;;;;;;;18.40;13.60;;;;;;;15.88;69.70;99485.20;435435;1251;99236;-42
2023/09/07 21:55:52;;;;;;;20.00;14.00;;;;;;;15.79;70.05;99488.00;435271;1256;111909;-40
2023/09/07 22:06:00;;;;;;;15.10;12.40;;;;;;;15.52;70.12;99482.43;435343;1250;106668;-41
2023/09/07 22:16:06;;;;;;;22.60;12.60;;;;;;;15.38;70.41;99478.44;435249;1254;99234;-41
2023/09/07 22:26:13;;;;;;;17.10;12.00;;;;;;;15.17;70.81;99470.31;435339;1256;108172;-41
2023/09/07 22:36:20;;;;;;;19.20;11.80;;;;;;;15.10;71.36;99471.89;435339;1258;99218;-42
2023/09/07 22:46:26;;;;;;;19.60;13.70;;;;;;;15.13;71.73;99473.10;435296;1255;111723;-42
2023/09/07 22:56:34;;;;;;;23.90;13.80;;;;;;;14.96;71.97;99472.27;435316;1250;108289;-42
2023/09/07 23:06:41;;;;;;;18.30;11.30;;;;;;;14.66;71.92;99464.91;435258;1264;99318;-42
2023/09/07 23:16:51;;;;;;;18.80;12.20;;;;;;;14.56;72.37;99456.26;435314;1256;107884;-42
2023/09/07 23:26:58;;;;;;;22.40;13.70;;;;;;;14.62;72.73;99450.04;435265;1264;99256;-42
2023/09/07 23:37:03;;;;;;;18.40;11.90;;;;;;;14.61;73.13;99452.27;435157;1264;111871;-41
2023/09/07 23:47:10;;;;;;;16.20;12.70;;;;;;;14.68;73.41;99463.11;435219;1255;107444;-43
2023/09/07 23:57:17;;;;;;;17.80;11.90;;;;;;;14.55;73.35;99462.67;435314;1264;97986;-41
